Time;durP1;ratioP1;P1;durP2;ratioP2;P2;SDS_P1;SDS_P2;PMS_P1;PMS_P2;Temp;Humidity;BMP_temperature;BMP_pressure;BME280_temperature;BME280_humidity;BME280_pressure;Samples;Min_cycle;Max_cycle;Signal;HPM_P1;HPM_P2
2022/04/04 00:02:15;;;;;;;;;;;;;;;3.41;71.56;100153.06;5022440;28;20435;-83
2022/04/04 00:04:41;;;;;;;;;;;;;;;3.47;69.99;100153.06;5024781;28;19928;-82
2022/04/04 00:07:06;;;;;;;;;;;;;;;3.54;70.51;100163.81;5022290;28;19921;-82
2022/04/04 00:09:31;;;;;;;;;;;;;;;3.20;70.60;100155.75;5025204;28;20008;-82
2022/04/04 00:11:56;;;;;;;;;;;;;;;3.15;71.88;100153.66;5022651;28;19928;-83
2022/04/04 00:14:21;;;;;;;;;;;;;;;3.34;70.86;100155.75;5025258;28;20431;-82
2022/04/04 00:16:47;;;;;;;;;;;;;;;3.27;71.01;100158.47;5021336;28;19925;-82
2022/04/04 00:19:13;;;;;;;;;;;;;;;3.27;71.32;100145.78;5025097;28;19923;-82
2022/04/04 00:21:39;;;;;;;;;;;;;;;3.39;69.96;100139.78;5022728;28;20395;-82
2022/04/04 00:24:04;;;;;;;;;;;;;;;3.53;69.72;100140.63;5022574;28;20016;-82
2022/04/04 00:26:29;;;;;;;;;;;;;;;3.56;69.13;100140.19;5024825;28;19928;-82
2022/04/04 00:28:54;;;;;;;;;;;;;;;3.55;69.79;100149.31;5022921;28;19921;-83
2022/04/04 00:31:20;;;;;;;;;;;;;;;3.47;69.27;100136.06;5021998;28;19979;-82
2022/04/04 00:33:45;;;;;;;;;;;;;;;3.43;69.75;100142.91;5022504;28;20138;-82
2022/04/04 00:36:10;;;;;;;;;;;;;;;3.65;69.36;100134.56;5024013;28;19944;-82
2022/04/04 00:38:35;;;;;;;;;;;;;;;3.40;70.19;100130.66;5022581;28;19925;-82
2022/04/04 00:41:01;;;;;;;;;;;;;;;3.40;70.01;100140.63;5023176;28;19921;-83
2022/04/04 00:43:26;;;;;;;;;;;;;;;3.47;70.12;100133.34;5023100;28;19925;-83
2022/04/04 00:45:51;;;;;;;;;;;;;;;3.18;70.80;100128.16;5021813;28;20630;-80
2022/04/04 00:48:30;;;;;;;;;;;;;;;3.36;70.62;100132.09;5041765;28;19924;-81
2022/04/04 00:50:56;;;;;;;;;;;;;;;3.42;69.82;100112.41;5033825;28;19925;-83
2022/04/04 00:53:21;;;;;;;;;;;;;;;3.34;69.69;100108.06;5024157;28;20376;-83
2022/04/04 00:55:46;;;;;;;;;;;;;;;3.17;70.53;100104.13;5022606;28;19921;-82
2022/04/04 00:58:13;;;;;;;;;;;;;;;3.22;70.38;100107.84;5037942;28;20276;-83
2022/04/04 01:00:40;;;;;;;;;;;;;;;3.30;70.58;100093.34;5037656;28;19968;-81
2022/04/04 01:03:05;;;;;;;;;;;;;;;3.25;70.26;100095.84;5023798;28;19921;-80
2022/04/04 01:05:30;;;;;;;;;;;;;;;3.23;70.64;100095.22;5027814;28;20027;-81
2022/04/04 01:07:56;;;;;;;;;;;;;;;3.33;70.26;100090.25;5026130;28;19974;-82
2022/04/04 01:10:21;;;;;;;;;;;;;;;3.33;70.68;100084.84;5025337;28;20315;-82
2022/04/04 01:12:51;;;;;;;;;;;;;;;3.19;70.92;100085.88;5025486;28;20339;-83
2022/04/04 01:15:16;;;;;;;;;;;;;;;3.25;70.16;100085.06;5027200;28;19928;-82
2022/04/04 01:17:41;;;;;;;;;;;;;;;3.33;70.15;100076.78;5026664;28;19921;-82
2022/04/04 01:20:07;;;;;;;;;;;;;;;3.30;71.33;100087.94;5025731;28;20023;-83
2022/04/04 01:22:32;;;;;;;;;;;;;;;3.32;70.46;100077.78;5027489;28;19921;-82
2022/04/04 01:24:59;;;;;;;;;;;;;;;3.33;70.83;100068.69;5023909;28;19927;-82
2022/04/04 01:27:25;;;;;;;;;;;;;;;3.25;70.92;100074.28;5027016;28;19917;-82
2022/04/04 01:29:50;;;;;;;;;;;;;;;3.26;70.62;100071.38;5023727;28;20381;-81
2022/04/04 01:32:15;;;;;;;;;;;;;;;3.32;71.34;100072.41;5026154;28;19933;-83
2022/04/04 01:34:40;;;;;;;;;;;;;;;3.41;70.58;100058.72;5025276;28;19921;-82
2022/04/04 01:37:06;;;;;;;;;;;;;;;3.39;71.47;100058.94;5026625;28;20404;-82
2022/04/04 01:39:31;;;;;;;;;;;;;;;3.18;70.41;100063.50;5025962;28;19986;-82
2022/04/04 01:41:56;;;;;;;;;;;;;;;3.34;70.60;100056.84;5025085;28;19940;-81
2022/04/04 01:44:21;;;;;;;;;;;;;;;3.32;70.93;100042.75;5026945;28;19921;-83
2022/04/04 01:46:46;;;;;;;;;;;;;;;3.17;71.49;100040.28;5029969;28;20009;-82
2022/04/04 01:49:12;;;;;;;;;;;;;;;3.12;71.33;100043.59;5046629;28;19943;-82
2022/04/04 01:51:37;;;;;;;;;;;;;;;3.08;71.78;100047.75;5030792;28;19944;-82
2022/04/04 01:54:03;;;;;;;;;;;;;;;3.07;70.96;100040.69;5026608;28;19921;-82
2022/04/04 01:56:29;;;;;;;;;;;;;;;3.21;70.99;100038.00;5025788;28;20008;-82
2022/04/04 01:58:54;;;;;;;;;;;;;;;3.36;71.12;100030.50;5025793;28;20368;-83
2022/04/04 02:01:21;;;;;;;;;;;;;;;3.06;71.81;100032.81;5025946;28;20739;-82
2022/04/04 02:03:47;;;;;;;;;;;;;;;3.03;71.95;100018.72;5024754;28;19948;-83
2022/04/04 02:06:13;;;;;;;;;;;;;;;3.06;71.86;100020.19;5026412;28;20755;-82
2022/04/04 02:08:39;;;;;;;;;;;;;;;3.14;71.72;100014.59;5025185;28;19921;-82
2022/04/04 02:11:05;;;;;;;;;;;;;;;2.87;72.28;100009.22;5025834;28;19932;-82
2022/04/04 02:13:30;;;;;;;;;;;;;;;2.89;72.62;100006.31;5025247;28;19921;-82
2022/04/04 02:15:57;;;;;;;;;;;;;;;2.97;71.50;99991.81;5025525;28;20360;-82
2022/04/04 02:18:22;;;;;;;;;;;;;;;2.79;72.59;99996.78;5026411;28;20281;-83
2022/04/04 02:20:49;;;;;;;;;;;;;;;2.80;72.37;99997.63;5023217;28;20412;-82
2022/04/04 02:23:18;;;;;;;;;;;;;;;2.56;73.39;99991.81;5026324;28;20010;-82
2022/04/04 02:25:47;;;;;;;;;;;;;;;2.72;73.35;99989.75;5024179;28;19921;-82
2022/04/04 02:28:13;;;;;;;;;;;;;;;2.73;72.49;99986.00;5026124;28;20133;-83
2022/04/04 02:30:38;;;;;;;;;;;;;;;2.73;73.27;99973.38;5022771;28;20550;-82
2022/04/04 02:33:04;;;;;;;;;;;;;;;2.90;72.67;99975.66;5025572;28;20291;-82
2022/04/04 02:35:29;;;;;;;;;;;;;;;2.72;72.24;99976.28;5025187;28;19928;-82
2022/04/04 02:37:55;;;;;;;;;;;;;;;2.68;73.26;99970.50;5024316;28;19917;-81
2022/04/04 02:40:20;;;;;;;;;;;;;;;2.80;72.54;99971.53;5025956;28;20394;-82
2022/04/04 02:42:47;;;;;;;;;;;;;;;2.83;72.66;99962.19;5024012;28;19929;-82
2022/04/04 02:45:12;;;;;;;;;;;;;;;2.65;72.95;99958.25;5025705;28;20190;-82
2022/04/04 02:47:38;;;;;;;;;;;;;;;2.61;73.05;99957.00;5036273;28;19974;-81
2022/04/04 02:50:03;;;;;;;;;;;;;;;2.61;73.55;99948.09;5044767;28;20265;-82
2022/04/04 02:52:28;;;;;;;;;;;;;;;2.61;72.69;99953.50;5024771;28;20576;-82
2022/04/04 02:54:53;;;;;;;;;;;;;;;2.61;73.17;99935.47;5024842;28;20002;-82
2022/04/04 02:57:19;;;;;;;;;;;;;;;2.71;72.84;99935.06;5025180;28;20406;-82
2022/04/04 02:59:44;;;;;;;;;;;;;;;2.63;73.09;99932.56;5024042;28;19928;-82
2022/04/04 03:02:09;;;;;;;;;;;;;;;2.52;73.49;99925.97;5024798;28;19929;-81
2022/04/04 03:04:35;;;;;;;;;;;;;;;2.74;72.47;99917.66;5023433;28;19921;-82
2022/04/04 03:07:00;;;;;;;;;;;;;;;2.49;73.31;99926.38;5024913;28;19928;-82
2022/04/04 03:09:25;;;;;;;;;;;;;;;2.58;73.65;99919.75;5023896;28;19925;-82
2022/04/04 03:11:50;;;;;;;;;;;;;;;2.62;72.76;99921.00;5024634;28;20396;-82
2022/04/04 03:14:16;;;;;;;;;;;;;;;2.61;72.82;99919.31;5024551;28;19991;-82
2022/04/04 03:16:41;;;;;;;;;;;;;;;2.66;72.84;99913.31;5023674;28;20321;-82
2022/04/04 03:19:06;;;;;;;;;;;;;;;2.60;72.83;99906.06;5025149;28;19921;-82
2022/04/04 03:21:32;;;;;;;;;;;;;;;2.65;73.03;99904.41;5022950;28;19991;-82
2022/04/04 03:23:58;;;;;;;;;;;;;;;2.86;72.22;99899.00;5024354;28;19957;-82
2022/04/04 03:26:23;;;;;;;;;;;;;;;2.74;73.07;99901.50;5021369;28;19921;-82
2022/04/04 03:28:48;;;;;;;;;;;;;;;2.55;72.61;99890.53;5025384;28;19971;-81
2022/04/04 03:31:13;;;;;;;;;;;;;;;2.66;73.06;99879.16;5023442;28;20012;-83
2022/04/04 03:33:39;;;;;;;;;;;;;;;2.81;72.54;99883.47;5024385;28;19921;-82
2022/04/04 03:36:04;;;;;;;;;;;;;;;3.10;71.85;99870.53;5024849;28;19948;-82
2022/04/04 03:38:30;;;;;;;;;;;;;;;3.18;71.02;99865.94;5022437;28;19921;-82
2022/04/04 03:40:55;;;;;;;;;;;;;;;2.88;71.78;99868.13;5024469;28;20303;-82
2022/04/04 03:43:21;;;;;;;;;;;;;;;2.78;71.40;99865.88;5022786;28;20287;-82
2022/04/04 03:45:46;;;;;;;;;;;;;;;2.74;72.02;99859.25;5024395;28;19925;-82
2022/04/04 03:48:13;;;;;;;;;;;;;;;2.63;72.29;99858.03;5039391;28;21331;-82
2022/04/04 03:50:39;;;;;;;;;;;;;;;2.65;71.84;99841.66;5038025;28;19931;-82
2022/04/04 03:53:04;;;;;;;;;;;;;;;2.61;72.21;99841.25;5024115;28;20031;-83
2022/04/04 03:55:31;;;;;;;;;;;;;;;2.66;72.89;99833.38;5023872;28;19925;-82
2022/04/04 03:57:57;;;;;;;;;;;;;;;2.77;72.19;99826.50;5024672;28;20015;-82
2022/04/04 04:00:23;;;;;;;;;;;;;;;2.75;71.49;99825.06;5022159;28;20023;-83
2022/04/04 04:02:49;;;;;;;;;;;;;;;2.46;72.48;99819.97;5024383;28;19971;-83
2022/04/04 04:05:14;;;;;;;;;;;;;;;2.53;71.95;99810.00;5022450;28;20404;-82
2022/04/04 04:07:40;;;;;;;;;;;;;;;2.56;72.15;99806.88;5024528;28;19975;-82
2022/04/04 04:10:06;;;;;;;;;;;;;;;2.66;71.99;99809.16;5023692;28;19921;-82
2022/04/04 04:12:31;;;;;;;;;;;;;;;2.64;71.65;99805.84;5024065;28;19924;-83
2022/04/04 04:14:57;;;;;;;;;;;;;;;2.63;70.99;99796.09;5024218;28;19963;-82
2022/04/04 04:17:24;;;;;;;;;;;;;;;2.50;72.20;99798.84;5022268;28;20377;-83
2022/04/04 04:22:34;;;;;;;;;;;;;;;2.43;71.51;99788.91;5023384;28;19927;-81
2022/04/04 04:25:00;;;;;;;;;;;;;;;2.44;71.37;99795.94;5024334;28;19929;-81
2022/04/04 04:27:25;;;;;;;;;;;;;;;2.55;71.52;99794.47;5023137;28;19921;-82
2022/04/04 04:29:51;;;;;;;;;;;;;;;2.67;70.95;99785.72;5023406;28;19925;-82
2022/04/04 04:32:16;;;;;;;;;;;;;;;2.56;71.20;99779.16;5023302;28;19932;-82
2022/04/04 04:34:46;;;;;;;;;;;;;;;2.53;70.72;99782.25;5022613;28;20331;-82
2022/04/04 04:37:12;;;;;;;;;;;;;;;2.72;70.77;99774.34;5025355;28;19928;-82
2022/04/04 04:39:37;;;;;;;;;;;;;;;2.56;70.22;99771.06;5026103;28;19921;-82
2022/04/04 04:42:03;;;;;;;;;;;;;;;2.63;69.80;99762.97;5027439;28;19974;-81
2022/04/04 04:44:28;;;;;;;;;;;;;;;2.77;69.50;99761.88;5026628;28;20217;-82
2022/04/04 04:46:53;;;;;;;;;;;;;;;2.92;68.86;99753.53;5033529;28;20427;-81
2022/04/04 04:49:19;;;;;;;;;;;;;;;2.83;68.97;99764.78;5047453;28;19920;-82
2022/04/04 04:51:44;;;;;;;;;;;;;;;2.72;69.49;99745.53;5031780;28;19925;-82
2022/04/04 04:54:09;;;;;;;;;;;;;;;2.73;68.72;99741.81;5028257;28;20419;-82
2022/04/04 04:56:35;;;;;;;;;;;;;;;2.83;69.38;99735.16;5025769;28;19921;-82
2022/04/04 04:59:01;;;;;;;;;;;;;;;2.82;68.21;99728.09;5027894;28;19925;-82
2022/04/04 05:01:26;;;;;;;;;;;;;;;2.72;69.06;99732.09;5024352;28;20311;-82
2022/04/04 05:03:51;;;;;;;;;;;;;;;2.68;69.15;99722.78;5027604;28;20039;-82
2022/04/04 05:06:16;;;;;;;;;;;;;;;2.82;68.39;99725.41;5026565;28;19940;-82
2022/04/04 05:08:42;;;;;;;;;;;;;;;2.55;69.47;99712.88;5026249;28;19927;-82
2022/04/04 05:11:07;;;;;;;;;;;;;;;2.54;70.07;99722.00;5026720;28;19952;-82
2022/04/04 05:13:32;;;;;;;;;;;;;;;2.49;69.79;99711.03;5025140;28;20284;-81
2022/04/04 05:15:58;;;;;;;;;;;;;;;2.76;69.09;99700.16;5026766;28;19921;-83
2022/04/04 05:18:24;;;;;;;;;;;;;;;2.64;69.42;99710.78;5024683;28;20436;-82
2022/04/04 05:20:49;;;;;;;;;;;;;;;2.66;69.40;99706.84;5026544;28;19935;-82
2022/04/04 05:23:14;;;;;;;;;;;;;;;2.94;68.28;99706.69;5025644;28;19987;-81
2022/04/04 05:25:40;;;;;;;;;;;;;;;2.76;68.96;99702.84;5027275;28;19925;-82
2022/04/04 05:28:07;;;;;;;;;;;;;;;2.66;68.74;99696.06;5026526;28;19925;-82
2022/04/04 05:30:32;;;;;;;;;;;;;;;2.58;68.19;99699.00;5027924;28;19925;-83
2022/04/04 05:32:57;;;;;;;;;;;;;;;2.63;68.99;99691.09;5032415;28;19971;-82
2022/04/04 05:35:23;;;;;;;;;;;;;;;2.82;69.33;99685.84;5025216;28;19972;-84
2022/04/04 05:37:48;;;;;;;;;;;;;;;2.73;69.19;99681.72;5027801;28;19921;-86
2022/04/04 05:40:14;;;;;;;;;;;;;;;2.58;69.63;99688.25;5027095;28;19928;-83
2022/04/04 05:42:39;;;;;;;;;;;;;;;2.94;69.90;99693.22;5027756;28;19967;-85
2022/04/04 05:45:04;;;;;;;;;;;;;;;2.94;68.03;99693.22;5024114;28;19925;-86
2022/04/04 05:47:30;;;;;;;;;;;;;;;2.89;67.69;99689.31;5030185;28;19928;-86
2022/04/04 05:49:56;;;;;;;;;;;;;;;2.97;67.99;99680.16;5048092;28;20157;-86
2022/04/04 05:52:25;;;;;;;;;;;;;;;3.08;68.50;99678.66;5027022;28;19982;-85
2022/04/04 05:54:59;;;;;;;;;;;;;;;3.08;68.37;99677.81;5029744;28;20343;-85
2022/04/04 05:57:25;;;;;;;;;;;;;;;2.98;68.08;99678.28;5027561;28;19917;-86
2022/04/04 05:59:51;;;;;;;;;;;;;;;2.98;68.40;99665.66;5029131;28;19959;-85
2022/04/04 06:02:17;;;;;;;;;;;;;;;2.84;68.19;99646.06;5027474;28;20300;-86
2022/04/04 06:04:42;;;;;;;;;;;;;;;2.96;68.38;99653.44;5028059;28;19921;-85
2022/04/04 06:07:07;;;;;;;;;;;;;;;2.93;68.43;99638.53;5028911;28;19921;-86
2022/04/04 06:09:32;;;;;;;;;;;;;;;2.90;68.63;99653.28;5027114;28;20008;-85
2022/04/04 06:11:57;;;;;;;;;;;;;;;2.73;68.40;99638.66;5028487;28;19928;-85
2022/04/04 06:14:23;;;;;;;;;;;;;;;2.80;68.59;99636.75;5027047;28;20304;-85
2022/04/04 06:16:48;;;;;;;;;;;;;;;2.76;69.00;99639.06;5028095;28;19917;-84
2022/04/04 06:19:13;;;;;;;;;;;;;;;2.78;68.56;99628.06;5027170;28;19964;-86
2022/04/04 06:21:39;;;;;;;;;;;;;;;2.88;68.05;99628.44;5026807;28;19959;-86
2022/04/04 06:24:05;;;;;;;;;;;;;;;2.87;68.69;99621.38;5028487;28;19924;-86
2022/04/04 06:26:30;;;;;;;;;;;;;;;2.97;68.21;99620.09;5026930;28;19921;-86
2022/04/04 06:28:55;;;;;;;;;;;;;;;3.02;67.98;99612.16;5028201;28;20423;-87
2022/04/04 06:31:21;;;;;;;;;;;;;;;2.91;68.07;99611.81;5026283;28;20032;-85
2022/04/04 06:33:46;;;;;;;;;;;;;;;3.03;67.43;99600.38;5028440;28;19925;-86
2022/04/04 06:36:11;;;;;;;;;;;;;;;3.11;67.23;99594.69;5026521;28;20307;-85
2022/04/04 06:38:36;;;;;;;;;;;;;;;3.34;66.89;99603.22;5027225;28;19997;-85
2022/04/04 06:41:01;;;;;;;;;;;;;;;3.41;67.10;99604.00;5024913;28;20308;-86
2022/04/04 06:43:27;;;;;;;;;;;;;;;3.32;66.79;99595.34;5026705;28;20380;-86
2022/04/04 06:45:52;;;;;;;;;;;;;;;3.22;66.61;99578.84;5027562;28;19921;-85
2022/04/04 06:48:17;;;;;;;;;;;;;;;3.37;66.47;99582.06;5026561;28;20367;-84
2022/04/04 06:50:42;;;;;;;;;;;;;;;3.12;66.91;99574.78;5027712;28;20366;-85
2022/04/04 06:53:08;;;;;;;;;;;;;;;3.11;66.45;99562.34;5024936;28;19925;-86
2022/04/04 06:55:33;;;;;;;;;;;;;;;2.92;67.16;99573.09;5026324;28;20015;-84
2022/04/04 06:57:58;;;;;;;;;;;;;;;3.03;67.05;99562.66;5026019;28;19959;-86
2022/04/04 07:00:23;;;;;;;;;;;;;;;3.12;66.83;99547.84;5025871;28;20339;-85
2022/04/04 07:02:49;;;;;;;;;;;;;;;3.05;66.68;99551.66;5026897;28;19921;-86
2022/04/04 07:05:15;;;;;;;;;;;;;;;3.14;67.14;99545.75;5026574;28;20028;-85
2022/04/04 07:07:40;;;;;;;;;;;;;;;3.24;66.33;99530.94;5027815;28;19952;-85
2022/04/04 07:10:05;;;;;;;;;;;;;;;3.54;66.44;99538.31;5025704;28;19921;-86
2022/04/04 07:12:31;;;;;;;;;;;;;;;3.61;66.30;99517.53;5027097;28;19948;-85
2022/04/04 07:14:56;;;;;;;;;;;;;;;3.67;66.68;99517.66;5025820;28;20214;-86
2022/04/04 07:17:21;;;;;;;;;;;;;;;3.72;67.02;99529.41;5026869;28;20014;-85
2022/04/04 07:19:47;;;;;;;;;;;;;;;3.62;66.66;99513.75;5024814;28;20008;-84
2022/04/04 07:24:56;;;;;;;;;;;;;;;3.96;66.46;99508.00;5007494;28;19928;-84
2022/04/04 07:27:21;;;;;;;;;;;;;;;3.93;66.38;99496.81;5005741;28;19922;-86
2022/04/04 07:29:46;;;;;;;;;;;;;;;4.01;66.74;99498.41;5007217;28;19922;-84
2022/04/04 07:32:11;;;;;;;;;;;;;;;4.07;65.83;99492.91;5021911;28;20020;-85
2022/04/04 07:34:37;;;;;;;;;;;;;;;3.95;65.63;99490.16;5026766;28;19971;-85
2022/04/04 07:37:03;;;;;;;;;;;;;;;4.02;65.95;99476.59;5025901;28;20251;-84
2022/04/04 07:39:28;;;;;;;;;;;;;;;4.12;65.54;99478.72;5026228;28;19917;-84
2022/04/04 07:41:53;;;;;;;;;;;;;;;4.26;65.27;99473.13;5010752;28;19925;-85
2022/04/04 07:44:19;;;;;;;;;;;;;;;4.36;64.99;99467.16;5005839;28;19917;-86
2022/04/04 07:46:44;;;;;;;;;;;;;;;4.09;65.53;99462.97;5015781;28;19927;-86
2022/04/04 07:49:09;;;;;;;;;;;;;;;4.23;65.74;99458.22;5045157;28;19917;-86
2022/04/04 07:51:34;;;;;;;;;;;;;;;4.06;64.66;99455.34;5033498;28;20264;-85
2022/04/04 07:54:00;;;;;;;;;;;;;;;4.06;64.79;99458.88;5024732;28;19917;-86
2022/04/04 07:56:25;;;;;;;;;;;;;;;4.08;64.66;99445.16;5025174;28;19925;-85
2022/04/04 07:58:50;;;;;;;;;;;;;;;4.18;65.07;99445.44;5025914;28;19963;-86
2022/04/04 08:01:15;;;;;;;;;;;;;;;4.21;64.53;99444.13;5023682;28;19929;-86
2022/04/04 08:03:40;;;;;;;;;;;;;;;4.66;64.84;99439.28;5027479;28;19924;-85
2022/04/04 08:06:06;;;;;;;;;;;;;;;4.55;64.04;99452.56;5024575;28;19958;-86
2022/04/04 08:08:31;;;;;;;;;;;;;;;4.49;64.73;99434.59;5026259;28;19921;-86
2022/04/04 08:11:00;;;;;;;;;;;;;;;4.58;63.92;99426.94;5020492;28;20087;-87
2022/04/04 08:13:25;;;;;;;;;;;;;;;4.54;64.07;99432.00;5009904;28;19939;-85
2022/04/04 08:15:51;;;;;;;;;;;;;;;4.64;63.61;99419.78;5009712;28;19925;-85
2022/04/04 08:18:16;;;;;;;;;;;;;;;4.71;63.16;99409.72;5009875;28;19932;-86
2022/04/04 08:20:42;;;;;;;;;;;;;;;4.62;63.45;99406.53;5016186;28;19932;-85
2022/04/04 08:23:08;;;;;;;;;;;;;;;4.82;63.64;99402.66;5031237;28;19924;-84
2022/04/04 08:25:33;;;;;;;;;;;;;;;5.11;63.08;99404.63;5033507;28;19928;-86
2022/04/04 08:27:58;;;;;;;;;;;;;;;5.08;63.37;99402.41;5029600;28;20676;-85
2022/04/04 08:30:23;;;;;;;;;;;;;;;5.20;63.00;99399.69;5030459;28;20328;-85
2022/04/04 08:32:48;;;;;;;;;;;;;;;5.07;62.75;99381.84;5042938;28;19928;-86
2022/04/04 08:35:14;;;;;;;;;;;;;;;5.21;62.44;99385.94;5050976;28;19924;-85
2022/04/04 08:37:41;;;;;;;;;;;;;;;5.36;62.49;99371.09;5050167;28;20427;-86
2022/04/04 08:40:07;;;;;;;;;;;;;;;5.36;61.65;99385.44;5028058;28;19964;-86
2022/04/04 08:42:33;;;;;;;;;;;;;;;5.40;61.39;99380.38;5030565;28;19972;-86
2022/04/04 08:44:59;;;;;;;;;;;;;;;5.48;61.57;99374.59;5028877;28;19917;-86
2022/04/04 08:47:25;;;;;;;;;;;;;;;5.59;61.96;99374.78;5040736;28;19917;-86
2022/04/04 08:49:52;;;;;;;;;;;;;;;5.71;60.51;99356.63;5049402;28;19960;-85
2022/04/04 08:52:17;;;;;;;;;;;;;;;5.94;61.04;99372.97;5031171;28;19952;-86
2022/04/04 08:54:42;;;;;;;;;;;;;;;6.15;59.89;99366.06;5029082;28;19917;-86
2022/04/04 08:57:07;;;;;;;;;;;;;;;5.94;59.06;99346.72;5029528;28;19921;-85
2022/04/04 08:59:32;;;;;;;;;;;;;;;5.78;59.65;99339.41;5029934;28;20292;-85
2022/04/04 09:01:57;;;;;;;;;;;;;;;5.49;60.48;99351.88;5028304;28;20008;-86
2022/04/04 09:04:23;;;;;;;;;;;;;;;5.80;60.56;99345.38;5030274;28;19953;-85
2022/04/04 09:06:48;;;;;;;;;;;;;;;5.94;60.16;99344.03;5028380;28;19921;-85
2022/04/04 09:09:20;;;;;;;;;;;;;;;5.88;60.49;99344.19;5029622;28;19928;-85
2022/04/04 09:12:11;;;;;;;;;;;;;;;5.99;60.60;99326.22;5028055;28;19925;-85
2022/04/04 09:14:37;;;;;;;;;;;;;;;5.61;60.58;99334.78;5025857;28;19925;-83
2022/04/04 09:17:05;;;;;;;;;;;;;;;5.69;59.97;99318.19;5029987;28;19921;-85
2022/04/04 09:19:30;;;;;;;;;;;;;;;5.55;60.39;99311.41;5028470;28;20020;-85
2022/04/04 09:21:56;;;;;;;;;;;;;;;5.39;61.64;99321.94;5029409;28;20024;-84
2022/04/04 09:24:21;;;;;;;;;;;;;;;5.50;60.20;99290.50;5026916;28;19956;-86
2022/04/04 09:26:48;;;;;;;;;;;;;;;5.60;61.32;99311.50;5029746;28;20256;-85
2022/04/04 09:29:20;;;;;;;;;;;;;;;5.67;60.32;99295.97;5028646;28;19943;-85
2022/04/04 09:32:05;;;;;;;;;;;;;;;5.76;61.24;99277.44;5031695;28;19925;-85
2022/04/04 09:34:30;;;;;;;;;;;;;;;5.82;60.43;99275.63;5034822;28;19921;-84
2022/04/04 09:36:56;;;;;;;;;;;;;;;5.64;61.22;99280.19;5008259;28;20007;-85
2022/04/04 09:39:21;;;;;;;;;;;;;;;5.82;60.66;99270.22;5009939;28;19918;-83
2022/04/04 09:41:47;;;;;;;;;;;;;;;6.12;60.83;99271.78;5022049;28;19964;-85
2022/04/04 09:44:12;;;;;;;;;;;;;;;6.02;60.61;99269.72;5029167;28;19921;-84
2022/04/04 09:46:38;;;;;;;;;;;;;;;6.21;61.07;99258.66;5032797;28;19928;-84
2022/04/04 09:49:04;;;;;;;;;;;;;;;6.03;61.56;99260.56;5040993;28;19916;-84
2022/04/04 09:51:36;;;;;;;;;;;;;;;6.02;61.10;99271.63;5028766;28;20427;-84
2022/04/04 09:54:03;;;;;;;;;;;;;;;5.82;62.47;99248.56;5026926;28;19936;-84
2022/04/04 09:56:28;;;;;;;;;;;;;;;6.03;63.18;99255.13;5029219;28;19953;-85
2022/04/04 09:58:54;;;;;;;;;;;;;;;6.04;63.32;99250.56;5027427;28;20026;-85
2022/04/04 10:01:19;;;;;;;;;;;;;;;6.01;63.76;99261.84;5038192;28;20046;-84
2022/04/04 10:03:45;;;;;;;;;;;;;;;5.67;64.46;99232.91;5028467;28;19943;-85
2022/04/04 10:06:12;;;;;;;;;;;;;;;5.64;65.70;99236.94;5027799;28;19943;-83
2022/04/04 10:08:38;;;;;;;;;;;;;;;5.78;65.79;99240.13;5028982;28;20012;-85
2022/04/04 10:11:05;;;;;;;;;;;;;;;5.32;67.54;99245.56;5024846;28;20016;-84
2022/04/04 10:13:31;;;;;;;;;;;;;;;5.46;68.84;99240.69;5028936;28;19924;-84
2022/04/04 10:15:56;;;;;;;;;;;;;;;5.43;68.69;99246.59;5024583;28;20267;-85
2022/04/04 10:18:21;;;;;;;;;;;;;;;5.31;70.15;99225.03;5027409;28;20304;-85
2022/04/04 10:20:53;;;;;;;;;;;;;;;5.43;70.10;99223.03;5026866;28;20007;-85
2022/04/04 10:26:03;;;;;;;;;;;;;;;5.34;71.11;99228.06;5028697;28;19962;-86
2022/04/04 10:28:32;;;;;;;;;;;;;;;4.93;71.15;99208.34;5025568;28;20024;-87
2022/04/04 10:30:59;;;;;;;;;;;;;;;5.04;73.44;99202.09;5026947;28;19940;-86
2022/04/04 10:33:24;;;;;;;;;;;;;;;4.99;72.75;99208.22;5024962;28;20261;-86
2022/04/04 10:35:58;;;;;;;;;;;;;;;4.94;72.70;99205.44;5024963;28;19928;-86
2022/04/04 10:38:30;;;;;;;;;;;;;;;4.88;73.86;99212.59;5023545;28;19917;-86
2022/04/04 10:40:55;;;;;;;;;;;;;;;4.99;74.13;99207.41;5025107;28;20402;-86
2022/04/04 10:43:21;;;;;;;;;;;;;;;4.93;72.97;99198.38;5027942;28;19985;-86
2022/04/04 10:45:49;;;;;;;;;;;;;;;4.84;74.44;99192.53;5027186;28;20043;-87
2022/04/04 10:48:17;;;;;;;;;;;;;;;4.83;75.11;99193.59;5045487;28;20379;-87
2022/04/04 10:50:42;;;;;;;;;;;;;;;4.89;75.14;99194.53;5034923;28;20270;-87
2022/04/04 10:53:08;;;;;;;;;;;;;;;4.95;75.29;99177.34;5008621;28;19921;-86
2022/04/04 10:55:36;;;;;;;;;;;;;;;4.91;74.44;99187.00;5007455;28;20176;-87
2022/04/04 10:58:11;;;;;;;;;;;;;;;4.89;75.53;99198.06;5007736;28;19943;-87
2022/04/04 11:00:54;;;;;;;;;;;;;;;5.10;74.80;99182.22;5013648;28;19925;-87
2022/04/04 11:03:46;;;;;;;;;;;;;;;5.04;75.16;99177.78;5044045;28;20324;-86
2022/04/04 11:09:16;;;;;;;;;;;;;;;5.05;75.50;99175.88;5048294;28;19989;-87
2022/04/04 11:11:41;;;;;;;;;;;;;;;5.23;76.35;99174.84;5031803;28;19975;-88
2022/04/04 11:14:07;;;;;;;;;;;;;;;5.21;76.61;99177.81;5028198;28;20380;-86
2022/04/04 11:16:58;;;;;;;;;;;;;;;5.24;75.86;99161.13;5024924;28;19929;-87
2022/04/04 11:19:27;;;;;;;;;;;;;;;5.21;76.27;99169.69;5026821;28;19917;-87
2022/04/04 11:21:52;;;;;;;;;;;;;;;4.88;78.13;99172.09;5027398;28;19928;-87
2022/04/04 11:24:18;;;;;;;;;;;;;;;4.66;78.79;99163.81;5026704;28;19921;-88
2022/04/04 11:26:46;;;;;;;;;;;;;;;4.86;78.94;99162.59;5028148;28;19921;-88
2022/04/04 11:29:15;;;;;;;;;;;;;;;4.84;78.17;99153.91;5025531;28;19968;-88
2022/04/04 11:31:47;;;;;;;;;;;;;;;4.68;79.75;99156.31;5018131;28;20286;-88
2022/04/04 11:34:13;;;;;;;;;;;;;;;4.61;80.00;99151.06;5026252;28;20395;-88
2022/04/04 11:36:39;;;;;;;;;;;;;;;4.94;79.63;99151.41;5027323;28;19967;-87
2022/04/04 11:39:07;;;;;;;;;;;;;;;4.75;79.63;99154.31;5028186;28;20117;-89
2022/04/04 11:41:36;;;;;;;;;;;;;;;4.54;80.38;99158.47;5025765;28;20020;-88
2022/04/04 11:44:02;;;;;;;;;;;;;;;4.39;80.46;99148.19;5024977;28;19980;-87
2022/04/04 11:46:27;;;;;;;;;;;;;;;4.77;80.35;99145.94;5026370;28;19921;-89
2022/04/04 11:48:57;;;;;;;;;;;;;;;4.32;80.90;99138.34;5045327;28;19984;-89
2022/04/04 11:51:32;;;;;;;;;;;;;;;4.23;81.67;99134.38;5033146;28;20416;-89
2022/04/04 11:54:04;;;;;;;;;;;;;;;4.16;81.97;99129.13;5024892;28;20462;-88
2022/04/04 11:56:31;;;;;;;;;;;;;;;4.16;81.49;99134.53;5036560;28;20368;-89
2022/04/04 11:58:57;;;;;;;;;;;;;;;4.18;82.38;99123.47;5047366;28;19924;-87
2022/04/04 12:01:31;;;;;;;;;;;;;;;4.39;81.57;99126.59;5035607;28;19936;-88
2022/04/04 12:03:57;;;;;;;;;;;;;;;4.21;81.30;99120.28;5023400;28;19921;-88
2022/04/04 12:06:23;;;;;;;;;;;;;;;4.04;83.58;99120.22;5025590;28;19931;-88
2022/04/04 12:08:48;;;;;;;;;;;;;;;4.39;82.38;99111.25;5024743;28;20012;-89
2022/04/04 12:11:13;;;;;;;;;;;;;;;4.07;83.26;99112.47;5024312;28;19936;-89
2022/04/04 12:13:56;;;;;;;;;;;;;;;4.04;83.37;99094.06;5024713;28;19924;-88
2022/04/04 12:16:22;;;;;;;;;;;;;;;4.29;83.19;99098.34;5004275;28;19925;-88
2022/04/04 12:18:54;;;;;;;;;;;;;;;4.55;82.71;99109.66;5005609;28;20269;-87
2022/04/04 12:21:20;;;;;;;;;;;;;;;4.26;82.70;99116.88;5004189;28;20012;-87
2022/04/04 12:26:30;;;;;;;;;;;;;;;4.25;82.82;99093.69;5005565;28;19988;-87
2022/04/04 12:28:56;;;;;;;;;;;;;;;3.87;84.00;99107.47;5004317;28;20396;-89
2022/04/04 12:31:23;;;;;;;;;;;;;;;3.88;83.87;99101.03;5016352;28;20180;-88
2022/04/04 12:34:09;;;;;;;;;;;;;;;4.06;83.64;99101.91;5025692;28;19929;-87
2022/04/04 12:36:38;;;;;;;;;;;;;;;3.89;84.23;99093.72;5027105;28;19960;-87
2022/04/04 12:39:03;;;;;;;;;;;;;;;3.89;83.27;99085.63;5026273;28;19964;-87
2022/04/04 12:41:39;;;;;;;;;;;;;;;4.03;83.46;99086.19;5026103;28;19979;-87
2022/04/04 12:44:06;;;;;;;;;;;;;;;4.13;82.73;99081.00;5027126;28;19959;-87
2022/04/04 12:46:33;;;;;;;;;;;;;;;4.01;83.52;99077.56;5025249;28;20411;-89
2022/04/04 12:49:08;;;;;;;;;;;;;;;3.98;84.05;99057.25;5027162;28;19921;-88
2022/04/04 12:54:23;;;;;;;;;;;;;;;4.00;84.60;99075.91;5028585;28;20521;-87
2022/04/04 12:56:49;;;;;;;;;;;;;;;3.98;84.88;99070.75;5027332;28;19922;-87
2022/04/04 12:59:14;;;;;;;;;;;;;;;4.02;84.21;99053.03;5028127;28;19917;-88
2022/04/04 13:01:39;;;;;;;;;;;;;;;4.18;84.27;99059.53;5034277;28;20039;-87
2022/04/04 13:04:19;;;;;;;;;;;;;;;4.00;84.39;99068.63;5048376;28;20011;-88
2022/04/04 13:06:45;;;;;;;;;;;;;;;3.91;84.09;99056.56;5049982;28;19916;-87
2022/04/04 13:09:11;;;;;;;;;;;;;;;4.00;84.24;99057.00;5049314;28;19928;-87